createdAt,value
2022-12-22T00:00:54.684Z,30.93
2022-12-22T00:03:15.666Z,31.17
2022-12-22T00:05:40.805Z,33.77
2022-12-22T00:08:04.977Z,31.33
2022-12-22T00:10:26.056Z,31.33
2022-12-22T00:12:46.605Z,33.03
2022-12-22T00:15:08.049Z,32.40
2022-12-22T00:17:45.669Z,33.53
2022-12-22T00:20:12.234Z,32.23
2022-12-22T00:22:41.845Z,33.03
2022-12-22T00:25:02.311Z,31.73
2022-12-22T00:27:23.194Z,31.00
2022-12-22T00:29:46.365Z,31.60
2022-12-22T00:32:07.170Z,30.27
2022-12-22T00:34:41.390Z,30.73
2022-12-22T00:37:02.816Z,29.57
2022-12-22T00:39:31.577Z,28.23
2022-12-22T00:41:52.370Z,29.40
2022-12-22T00:44:13.215Z,27.03
2022-12-22T00:46:37.292Z,25.53
2022-12-22T00:49:00.030Z,24.07
2022-12-22T00:51:20.827Z,23.53
2022-12-22T00:53:41.567Z,26.00
2022-12-22T00:56:01.953Z,25.57
2022-12-22T00:58:25.891Z,25.87
2022-12-22T01:00:47.231Z,26.00
2022-12-22T01:03:07.801Z,24.00
2022-12-22T01:05:28.456Z,21.87
2022-12-22T01:07:49.064Z,18.23
2022-12-22T01:10:11.893Z,20.33
2022-12-22T01:12:42.259Z,21.77
2022-12-22T01:15:02.882Z,19.73
2022-12-22T01:17:25.350Z,21.37
2022-12-22T01:19:45.844Z,19.50
2022-12-22T01:22:06.287Z,20.03
2022-12-22T01:24:32.162Z,18.53
2022-12-22T01:26:53.027Z,18.00
2022-12-22T01:29:13.735Z,19.87
2022-12-22T01:31:48.855Z,19.73
2022-12-22T01:34:09.482Z,19.33
2022-12-22T01:36:30.060Z,18.20
2022-12-22T01:38:50.882Z,19.90
2022-12-22T01:41:12.780Z,18.80
2022-12-22T01:43:54.450Z,19.63
2022-12-22T01:46:15.402Z,18.73
2022-12-22T01:48:49.471Z,19.33
2022-12-22T01:51:10.179Z,30.20
2022-12-22T01:53:36.347Z,35.77
2022-12-22T01:55:57.346Z,45.40
2022-12-22T01:58:18.139Z,61.10
2022-12-22T02:00:38.741Z,49.03
2022-12-22T02:02:59.661Z,44.77
2022-12-22T02:05:23.234Z,41.70
2022-12-22T02:07:46.476Z,37.83
2022-12-22T02:10:32.527Z,41.40
2022-12-22T02:13:12.408Z,29.80
2022-12-22T02:15:41.439Z,23.20
2022-12-22T02:18:26.884Z,62.40
2022-12-22T02:21:11.649Z,92.77
2022-12-22T02:24:05.655Z,81.23
2022-12-22T02:26:38.324Z,55.97
2022-12-22T02:28:58.731Z,51.50
2022-12-22T02:31:19.516Z,34.57
2022-12-22T02:33:41.108Z,31.57
2022-12-22T02:36:22.104Z,30.07
2022-12-22T02:39:12.992Z,43.63
2022-12-22T02:41:47.327Z,117.37
2022-12-22T02:44:33.116Z,84.00
2022-12-22T02:46:59.449Z,59.13
2022-12-22T02:49:44.226Z,48.70
2022-12-22T02:52:12.079Z,48.23
2022-12-22T02:54:35.253Z,46.60
2022-12-22T02:56:57.105Z,36.53
2022-12-22T02:59:17.672Z,27.67
2022-12-22T03:01:39.146Z,26.70
2022-12-22T03:03:59.923Z,27.20
2022-12-22T03:06:20.515Z,28.90
2022-12-22T03:08:44.348Z,26.63
2022-12-22T03:11:05.509Z,28.83
2022-12-22T03:13:26.670Z,28.13
2022-12-22T03:15:47.353Z,24.47
2022-12-22T03:18:10.622Z,26.33
2022-12-22T03:20:31.062Z,26.43
2022-12-22T03:22:51.708Z,25.67
2022-12-22T03:25:12.655Z,23.17
2022-12-22T03:27:14.936Z,22.70
2022-12-22T03:29:19.488Z,24.83
2022-12-22T03:31:24.314Z,24.37
2022-12-22T03:33:29.623Z,23.77
2022-12-22T03:35:31.777Z,23.47
2022-12-22T03:37:33.939Z,22.67
2022-12-22T03:39:38.585Z,24.70
2022-12-22T03:41:58.893Z,23.10
2022-12-22T03:44:19.779Z,23.47
2022-12-22T03:46:30.957Z,24.30
2022-12-22T03:48:33.278Z,23.13
2022-12-22T03:50:35.612Z,36.50
2022-12-22T03:52:37.950Z,30.43
2022-12-22T03:54:40.189Z,27.27
2022-12-22T03:56:42.722Z,28.13
2022-12-22T03:58:44.947Z,28.07
2022-12-22T04:00:47.401Z,29.57
2022-12-22T04:02:49.850Z,27.47
2022-12-22T04:04:54.549Z,27.17
2022-12-22T04:06:57.121Z,27.53
2022-12-22T04:08:59.146Z,27.20
2022-12-22T04:11:19.750Z,30.20
2022-12-22T04:13:21.858Z,46.50
2022-12-22T04:15:30.110Z,47.37
2022-12-22T04:17:32.194Z,40.40
2022-12-22T04:19:34.439Z,40.10
2022-12-22T04:21:37.683Z,44.47
2022-12-22T04:23:39.850Z,42.47
2022-12-22T04:25:42.007Z,40.17
2022-12-22T04:27:44.400Z,37.17
2022-12-22T04:29:46.711Z,38.27
2022-12-22T04:31:48.863Z,38.37
2022-12-22T04:33:50.984Z,38.17
2022-12-22T04:35:53.088Z,35.77
2022-12-22T04:37:55.126Z,35.93
2022-12-22T04:39:58.020Z,37.23
2022-12-22T04:42:00.367Z,36.50
2022-12-22T04:44:02.805Z,70.43
2022-12-22T04:46:08.632Z,80.73
2022-12-22T04:48:11.027Z,78.63
2022-12-22T04:50:13.191Z,125.90
2022-12-22T04:52:15.653Z,122.93
2022-12-22T04:54:17.866Z,133.67
2022-12-22T04:56:22.775Z,139.93
2022-12-22T04:58:25.111Z,109.47
2022-12-22T05:00:27.605Z,94.60
2022-12-22T05:02:29.831Z,66.30
2022-12-22T05:04:32.588Z,47.17
2022-12-22T05:06:34.825Z,35.90
2022-12-22T05:08:37.349Z,32.67
2022-12-22T05:10:40.454Z,29.67
2022-12-22T05:12:57.698Z,30.00
2022-12-22T05:14:59.888Z,30.00
2022-12-22T05:17:02.295Z,29.50
2022-12-22T05:19:04.622Z,26.33
2022-12-22T05:21:10.142Z,27.37
2022-12-22T05:23:12.871Z,27.50
2022-12-22T05:25:20.267Z,28.67
2022-12-22T05:27:22.427Z,27.10
2022-12-22T05:29:24.780Z,24.10
2022-12-22T05:31:28.125Z,22.40
2022-12-22T05:33:30.490Z,24.03
2022-12-22T05:35:32.630Z,22.73
2022-12-22T05:37:35.537Z,22.93
2022-12-22T05:39:38.128Z,22.10
2022-12-22T05:41:40.236Z,23.00
2022-12-22T05:43:42.291Z,23.93
2022-12-22T05:45:45.792Z,21.57
2022-12-22T05:47:50.790Z,22.33
2022-12-22T05:49:53.038Z,21.10
2022-12-22T05:51:57.720Z,22.00
2022-12-22T05:54:00.141Z,21.23
2022-12-22T05:56:02.432Z,21.30
2022-12-22T05:58:04.643Z,20.63
2022-12-22T06:00:08.971Z,22.83
2022-12-22T06:02:17.621Z,24.43
2022-12-22T06:04:20.003Z,25.00
2022-12-22T06:06:22.436Z,27.33
2022-12-22T06:08:25.345Z,28.17
2022-12-22T06:10:27.815Z,27.47
2022-12-22T06:12:30.197Z,27.07
2022-12-22T06:14:32.379Z,28.80
2022-12-22T06:16:34.490Z,28.33
2022-12-22T06:18:37.301Z,31.10
2022-12-22T06:20:39.603Z,29.47
2022-12-22T06:22:47.669Z,29.87
2022-12-22T06:24:50.210Z,26.87
2022-12-22T06:26:52.573Z,26.97
2022-12-22T06:28:54.606Z,26.50
2022-12-22T06:30:56.801Z,25.03
2022-12-22T06:33:00.443Z,28.20
2022-12-22T06:35:03.022Z,28.10
2022-12-22T06:37:05.359Z,27.10
2022-12-22T06:39:10.459Z,26.10
2022-12-22T06:41:12.389Z,28.43
2022-12-22T06:43:14.560Z,28.20
2022-12-22T06:45:16.767Z,26.60
2022-12-22T06:47:19.014Z,26.53
2022-12-22T06:49:21.270Z,27.60
2022-12-22T06:51:23.615Z,28.57
2022-12-22T06:53:26.572Z,29.33
2022-12-22T06:55:31.919Z,29.73
2022-12-22T06:57:33.986Z,30.93
2022-12-22T06:59:36.074Z,30.13
2022-12-22T07:01:42.935Z,31.97
2022-12-22T07:03:45.624Z,32.87
2022-12-22T07:05:48.441Z,39.17
2022-12-22T07:07:51.014Z,48.90
2022-12-22T07:09:53.108Z,48.53
2022-12-22T07:11:55.770Z,47.37
2022-12-22T07:13:58.485Z,45.40
2022-12-22T07:16:02.848Z,38.97
2022-12-22T07:18:05.377Z,34.83
2022-12-22T07:20:08.599Z,33.37
2022-12-22T07:22:10.677Z,37.87
2022-12-22T07:24:12.820Z,38.40
2022-12-22T07:26:15.528Z,35.80
2022-12-22T07:28:20.983Z,38.47
2022-12-22T07:30:23.615Z,37.33
2022-12-22T07:32:25.840Z,36.63
2022-12-22T07:34:28.237Z,37.80
2022-12-22T07:36:30.794Z,39.50
2022-12-22T07:38:38.660Z,38.10
2022-12-22T07:40:42.404Z,41.00
2022-12-22T07:42:45.392Z,41.23
2022-12-22T07:44:47.794Z,43.90
2022-12-22T07:46:50.469Z,48.33
2022-12-22T07:49:11.976Z,53.03
2022-12-22T07:51:14.084Z,52.10
2022-12-22T07:53:16.383Z,48.47
2022-12-22T07:55:19.286Z,47.70
2022-12-22T07:57:26.406Z,44.87
2022-12-22T07:59:28.899Z,46.97
2022-12-22T08:01:31.603Z,48.80
2022-12-22T08:03:33.865Z,43.20
2022-12-22T08:05:41.850Z,43.67
2022-12-22T08:07:51.773Z,45.70
2022-12-22T08:09:54.129Z,49.40
2022-12-22T08:11:56.354Z,47.57
2022-12-22T08:14:01.524Z,42.17
2022-12-22T08:16:09.691Z,43.10
2022-12-22T08:18:11.954Z,47.60
2022-12-22T08:20:14.172Z,46.63
2022-12-22T08:22:21.153Z,45.43
2022-12-22T08:24:26.353Z,43.00
2022-12-22T08:26:35.043Z,45.67
2022-12-22T08:28:45.417Z,47.67
2022-12-22T08:30:49.024Z,44.83
2022-12-22T08:32:51.884Z,44.73
2022-12-22T08:34:54.420Z,42.33
2022-12-22T08:37:00.410Z,43.20
2022-12-22T08:39:02.523Z,42.90
2022-12-22T08:41:04.786Z,40.83
2022-12-22T08:43:09.615Z,41.13
2022-12-22T08:45:11.804Z,43.37
2022-12-22T08:47:17.193Z,46.13
2022-12-22T08:49:20.234Z,41.20
2022-12-22T08:51:22.417Z,43.10
2022-12-22T08:54:02.347Z,40.63
2022-12-22T08:55:56.903Z,41.80
2022-12-22T08:57:59.355Z,46.30
2022-12-22T09:00:06.696Z,47.63
2022-12-22T09:02:09.355Z,46.07
2022-12-22T09:04:16.899Z,44.17
2022-12-22T09:06:27.278Z,44.90
2022-12-22T09:08:30.218Z,45.67
2022-12-22T09:10:32.691Z,42.57
2022-12-22T09:12:35.355Z,44.07
2022-12-22T09:14:38.059Z,41.57
2022-12-22T09:16:40.972Z,42.37
2022-12-22T09:18:43.167Z,39.67
2022-12-22T09:20:45.719Z,39.93
2022-12-22T09:22:47.980Z,39.50
2022-12-22T09:24:50.482Z,39.93
2022-12-22T09:26:52.653Z,42.57
2022-12-22T09:28:55.537Z,40.93
2022-12-22T09:30:57.598Z,39.53
2022-12-22T09:33:00.136Z,39.53
2022-12-22T09:35:02.202Z,38.43
2022-12-22T09:37:06.578Z,36.87
2022-12-22T09:39:10.121Z,37.47
2022-12-22T09:41:34.990Z,37.27
2022-12-22T09:43:37.894Z,35.33
2022-12-22T09:45:40.618Z,35.23
2022-12-22T09:47:42.893Z,38.77
2022-12-22T09:49:45.653Z,36.07
2022-12-22T09:51:54.530Z,35.93
2022-12-22T09:54:01.480Z,35.77
2022-12-22T09:56:04.060Z,35.57
2022-12-22T09:58:20.667Z,37.10
2022-12-22T10:00:27.826Z,37.30
2022-12-22T10:02:44.222Z,37.03
2022-12-22T10:05:20.974Z,37.20
2022-12-22T10:07:29.983Z,35.90
2022-12-22T10:09:50.686Z,35.63
2022-12-22T10:11:56.915Z,35.83
2022-12-22T10:13:59.360Z,36.60
2022-12-22T10:16:01.516Z,37.43
2022-12-22T10:18:13.432Z,35.77
2022-12-22T10:20:25.579Z,35.10
2022-12-22T10:22:33.492Z,34.50
2022-12-22T10:24:36.166Z,36.13
2022-12-22T10:26:39.781Z,35.80
2022-12-22T10:28:49.742Z,32.70
2022-12-22T10:31:11.421Z,33.40
2022-12-22T10:33:19.293Z,34.17
2022-12-22T10:35:21.497Z,34.30
2022-12-22T10:37:32.203Z,37.23
2022-12-22T10:39:36.910Z,35.23
2022-12-22T10:41:46.044Z,33.97
2022-12-22T10:43:51.866Z,35.43
2022-12-22T10:45:55.961Z,36.43
2022-12-22T10:47:58.508Z,33.50
2022-12-22T10:52:13.129Z,36.00
2022-12-22T10:54:38.339Z,35.10
2022-12-22T10:56:40.514Z,33.93
2022-12-22T10:59:01.583Z,33.47
2022-12-22T11:01:05.517Z,33.30
2022-12-22T11:03:12.407Z,32.97
2022-12-22T11:05:14.491Z,32.27
2022-12-22T11:07:16.808Z,30.87
2022-12-22T11:09:35.564Z,31.43
2022-12-22T11:11:53.507Z,27.97
2022-12-22T11:14:04.563Z,27.47
2022-12-22T11:16:12.859Z,29.93
2022-12-22T11:18:20.729Z,29.60
2022-12-22T11:20:32.027Z,51.33
2022-12-22T11:22:46.620Z,58.17
2022-12-22T11:25:18.931Z,68.17
2022-12-22T11:27:45.567Z,57.90
2022-12-22T11:30:04.717Z,44.17
2022-12-22T11:32:33.959Z,40.80
2022-12-22T11:34:41.764Z,45.80
2022-12-22T11:37:10.088Z,40.60
2022-12-22T11:39:15.608Z,38.77
2022-12-22T11:41:42.715Z,38.57
2022-12-22T11:44:06.586Z,37.47
2022-12-22T11:46:18.649Z,38.67
2022-12-22T11:48:32.429Z,38.27
2022-12-22T11:51:02.205Z,40.00
2022-12-22T11:53:45.853Z,38.57
2022-12-22T11:56:12.767Z,38.47
2022-12-22T11:58:43.673Z,37.47
2022-12-22T12:01:15.327Z,36.80
2022-12-22T12:03:23.107Z,37.77
2022-12-22T12:05:34.742Z,39.53
2022-12-22T12:07:53.447Z,37.40
2022-12-22T12:10:10.906Z,42.90
2022-12-22T12:12:51.850Z,43.00
2022-12-22T12:15:32.613Z,41.77
2022-12-22T12:18:15.653Z,43.33
2022-12-22T12:20:39.117Z,44.60
2022-12-22T12:23:15.475Z,44.70
2022-12-22T12:25:41.677Z,43.70
2022-12-22T12:28:12.402Z,45.07
2022-12-22T12:32:58.206Z,43.93
2022-12-22T12:35:32.873Z,43.90
2022-12-22T12:37:39.132Z,43.70
2022-12-22T12:40:09.627Z,48.37
2022-12-22T12:42:29.869Z,51.10
2022-12-22T12:44:34.992Z,47.57
2022-12-22T12:46:54.442Z,43.33
2022-12-22T12:48:56.685Z,42.90
2022-12-22T12:50:59.096Z,46.83
2022-12-22T12:53:10.562Z,51.97
2022-12-22T12:55:41.422Z,52.33
2022-12-22T12:57:51.679Z,69.90
2022-12-22T12:59:57.367Z,67.67
2022-12-22T13:02:00.583Z,64.87
2022-12-22T13:04:05.037Z,65.03
2022-12-22T13:06:11.226Z,64.20
2022-12-22T13:08:23.734Z,66.53
2022-12-22T13:10:26.658Z,74.07
2022-12-22T13:12:49.947Z,69.30
2022-12-22T13:14:59.168Z,59.97
2022-12-22T13:17:56.218Z,58.97
2022-12-22T13:20:05.435Z,55.20
2022-12-22T13:22:08.726Z,47.53
2022-12-22T13:24:31.475Z,48.23
2022-12-22T13:26:34.546Z,47.90
2022-12-22T13:28:39.718Z,51.00
2022-12-22T13:30:49.747Z,50.00
2022-12-22T13:32:53.094Z,49.20
2022-12-22T13:35:33.723Z,47.90
2022-12-22T13:37:43.697Z,63.83
2022-12-22T13:40:13.571Z,76.23
2022-12-22T13:42:16.868Z,76.73
2022-12-22T13:44:28.300Z,71.40
2022-12-22T13:46:33.153Z,63.00
2022-12-22T13:48:45.246Z,57.67
2022-12-22T13:50:54.263Z,51.70
2022-12-22T13:52:58.330Z,46.50
2022-12-22T13:55:01.426Z,44.40
2022-12-22T13:57:05.931Z,43.63
2022-12-22T13:59:38.308Z,40.73
2022-12-22T14:01:56.482Z,39.83
2022-12-22T14:04:07.954Z,40.67
2022-12-22T14:06:43.654Z,48.17
2022-12-22T14:08:45.856Z,47.33
2022-12-22T14:10:48.442Z,49.57
2022-12-22T14:12:50.877Z,45.33
2022-12-22T14:14:58.616Z,45.20
2022-12-22T14:17:01.108Z,46.80
2022-12-22T14:19:03.258Z,48.87
2022-12-22T14:21:06.184Z,52.00
2022-12-22T14:23:22.759Z,51.03
2022-12-22T14:25:32.902Z,56.03
2022-12-22T14:27:40.493Z,64.33
2022-12-22T14:29:43.653Z,66.03
2022-12-22T14:32:02.977Z,67.30
2022-12-22T14:34:08.255Z,64.10
2022-12-22T14:36:26.314Z,59.13
2022-12-22T14:38:28.589Z,60.47
2022-12-22T14:40:34.608Z,54.37
2022-12-22T14:42:45.706Z,57.70
2022-12-22T14:44:48.698Z,60.93
2022-12-22T14:47:12.924Z,63.07
2022-12-22T14:49:20.150Z,63.57
2022-12-22T14:51:22.617Z,55.47
2022-12-22T14:53:29.697Z,54.23
2022-12-22T14:55:36.772Z,50.70
2022-12-22T14:57:42.852Z,51.37
2022-12-22T15:00:04.007Z,49.37
2022-12-22T15:02:33.502Z,50.90
2022-12-22T15:04:39.104Z,54.43
2022-12-22T15:06:45.943Z,55.57
2022-12-22T15:08:48.192Z,56.73
2022-12-22T15:10:50.690Z,54.90
2022-12-22T15:13:00.222Z,59.17
2022-12-22T15:15:03.153Z,55.90
2022-12-22T15:17:07.724Z,51.10
2022-12-22T15:19:19.743Z,51.27
2022-12-22T15:21:23.092Z,46.20
2022-12-22T15:23:25.381Z,47.73
2022-12-22T15:25:27.579Z,52.13
2022-12-22T15:27:30.496Z,51.57
2022-12-22T15:29:33.176Z,52.70
2022-12-22T15:31:35.444Z,53.10
2022-12-22T15:33:37.892Z,55.87
2022-12-22T15:35:42.209Z,55.57
2022-12-22T15:37:44.473Z,56.93
2022-12-22T15:39:47.587Z,61.07
2022-12-22T15:41:50.412Z,59.43
2022-12-22T15:43:58.403Z,57.80
2022-12-22T15:46:02.452Z,57.53
2022-12-22T15:48:06.992Z,53.80
2022-12-22T15:50:15.815Z,52.43
2022-12-22T15:52:17.984Z,51.40
2022-12-22T15:54:20.654Z,49.00
2022-12-22T15:56:25.259Z,50.43
2022-12-22T15:58:35.663Z,48.53
2022-12-22T16:00:37.912Z,50.67
2022-12-22T16:02:40.567Z,50.00
2022-12-22T16:04:43.687Z,48.30
2022-12-22T16:06:47.953Z,45.47
2022-12-22T16:08:53.745Z,53.00
2022-12-22T16:10:56.623Z,59.00
2022-12-22T16:13:03.294Z,63.37
2022-12-22T16:15:08.673Z,60.93
2022-12-22T16:17:18.481Z,55.80
2022-12-22T16:19:20.538Z,54.90
2022-12-22T16:21:37.604Z,52.40
2022-12-22T16:23:45.587Z,51.53
2022-12-22T16:25:48.088Z,51.87
2022-12-22T16:27:54.633Z,59.00
2022-12-22T16:29:58.377Z,61.83
2022-12-22T16:32:24.773Z,65.90
2022-12-22T16:34:26.920Z,61.43
2022-12-22T16:36:28.916Z,58.17
2022-12-22T16:38:35.532Z,90.80
2022-12-22T16:40:46.879Z,121.03
2022-12-22T16:45:26.018Z,137.57
2022-12-22T16:47:36.246Z,109.90
2022-12-22T16:49:38.846Z,97.97
2022-12-22T16:51:53.177Z,86.93
2022-12-22T16:53:55.746Z,76.83
2022-12-22T16:56:02.850Z,79.00
2022-12-22T16:58:12.932Z,79.43
2022-12-22T17:00:22.750Z,113.37
2022-12-22T17:02:31.009Z,107.03
2022-12-22T17:04:34.047Z,102.53
2022-12-22T17:06:37.343Z,86.87
2022-12-22T17:08:42.135Z,88.40
2022-12-22T17:10:44.474Z,83.50
2022-12-22T17:13:18.161Z,79.07
2022-12-22T17:15:22.726Z,77.73
2022-12-22T17:17:31.129Z,81.17
2022-12-22T17:19:36.548Z,83.73
2022-12-22T17:21:38.830Z,64.77
2022-12-22T17:23:50.350Z,54.20
2022-12-22T17:25:52.942Z,58.23
2022-12-22T17:28:01.361Z,60.43
2022-12-22T17:30:04.152Z,65.83
2022-12-22T17:32:06.270Z,58.97
2022-12-22T17:34:19.883Z,58.30
2022-12-22T17:36:36.190Z,55.90
2022-12-22T17:38:38.420Z,67.97
2022-12-22T17:40:41.088Z,65.00
2022-12-22T17:42:43.896Z,73.63
2022-12-22T17:44:49.072Z,68.87
2022-12-22T17:46:53.198Z,81.87
2022-12-22T17:48:55.700Z,93.53
2022-12-22T17:50:57.965Z,89.03
2022-12-22T17:53:01.580Z,85.97
2022-12-22T17:55:05.134Z,68.67
2022-12-22T17:57:16.774Z,57.60
2022-12-22T17:59:21.820Z,55.20
2022-12-22T18:01:29.562Z,55.63
2022-12-22T18:03:31.907Z,58.23
2022-12-22T18:05:41.223Z,64.47
2022-12-22T18:07:45.314Z,70.50
2022-12-22T18:09:49.246Z,67.73
2022-12-22T18:11:51.748Z,54.50
2022-12-22T18:13:57.466Z,56.77
2022-12-22T18:15:59.762Z,51.90
2022-12-22T18:18:10.467Z,54.30
2022-12-22T18:20:24.185Z,55.00
2022-12-22T18:22:41.691Z,56.27
2022-12-22T18:24:54.817Z,54.00
2022-12-22T18:26:57.053Z,57.23
2022-12-22T18:28:59.997Z,55.27
2022-12-22T18:31:02.458Z,57.30
2022-12-22T18:33:04.786Z,53.73
2022-12-22T18:35:07.729Z,51.20
2022-12-22T18:37:16.446Z,51.03
2022-12-22T18:39:22.529Z,50.10
2022-12-22T18:41:26.830Z,46.70
2022-12-22T18:43:29.209Z,46.53
2022-12-22T18:45:32.060Z,46.67
2022-12-22T18:47:36.856Z,46.60
2022-12-22T18:49:39.233Z,49.73
2022-12-22T18:51:44.201Z,48.23
2022-12-22T18:53:47.783Z,49.10
2022-12-22T18:55:53.548Z,47.67
2022-12-22T18:57:57.307Z,47.40
2022-12-22T18:59:59.363Z,51.57
2022-12-22T19:02:28.868Z,46.77
2022-12-22T19:04:31.079Z,54.47
2022-12-22T19:06:33.456Z,58.47
2022-12-22T19:08:41.869Z,59.83
2022-12-22T19:10:52.673Z,57.17
2022-12-22T19:12:56.969Z,61.17
2022-12-22T19:15:05.287Z,61.40
2022-12-22T19:17:21.470Z,67.67
2022-12-22T19:19:24.348Z,68.57
2022-12-22T19:21:26.435Z,72.87
2022-12-22T19:23:28.758Z,66.30
2022-12-22T19:25:32.745Z,68.53
2022-12-22T19:27:35.049Z,68.83
2022-12-22T19:29:39.378Z,71.57
2022-12-22T19:32:06.841Z,74.53
2022-12-22T19:34:16.867Z,68.90
2022-12-22T19:36:22.795Z,71.20
2022-12-22T19:38:26.763Z,70.23
2022-12-22T19:40:31.501Z,67.20
2022-12-22T19:42:35.469Z,68.87
2022-12-22T19:44:37.713Z,71.37
2022-12-22T19:46:40.211Z,67.33
2022-12-22T19:48:42.590Z,66.57
2022-12-22T19:50:45.567Z,65.20
2022-12-22T19:52:47.960Z,59.90
2022-12-22T19:54:50.338Z,54.57
2022-12-22T19:56:57.830Z,52.20
2022-12-22T19:59:01.746Z,50.97
2022-12-22T20:01:11.718Z,50.80
2022-12-22T20:03:25.304Z,52.73
2022-12-22T20:05:31.652Z,54.07
2022-12-22T20:07:37.286Z,52.83
2022-12-22T20:09:39.572Z,56.03
2022-12-22T20:11:42.750Z,55.93
2022-12-22T20:13:45.774Z,58.73
2022-12-22T20:15:48.600Z,64.23
2022-12-22T20:17:52.849Z,64.17
2022-12-22T20:19:54.970Z,63.87
2022-12-22T20:21:57.104Z,64.17
2022-12-22T20:24:01.435Z,67.03
2022-12-22T20:26:12.388Z,68.20
2022-12-22T20:28:20.969Z,72.00
2022-12-22T20:30:30.631Z,73.97
2022-12-22T20:32:33.035Z,74.53
2022-12-22T20:34:35.362Z,84.50
2022-12-22T20:36:37.513Z,75.23
2022-12-22T20:38:41.958Z,61.63
2022-12-22T20:40:45.055Z,57.50
2022-12-22T20:42:47.497Z,59.50
2022-12-22T20:45:02.747Z,55.27
2022-12-22T20:47:14.902Z,57.07
2022-12-22T20:49:22.862Z,55.43
2022-12-22T20:51:31.638Z,53.73
2022-12-22T20:53:34.441Z,53.37
2022-12-22T20:55:36.688Z,52.10
2022-12-22T20:57:41.911Z,52.97
2022-12-22T20:59:49.226Z,52.87
2022-12-22T21:01:56.207Z,53.33
2022-12-22T21:03:58.777Z,54.30
2022-12-22T21:06:00.904Z,54.80
2022-12-22T21:08:03.118Z,57.57
2022-12-22T21:10:06.022Z,57.07
2022-12-22T21:12:08.527Z,57.60
2022-12-22T21:14:11.566Z,59.03
2022-12-22T21:16:18.583Z,61.87
2022-12-22T21:18:23.391Z,61.83
2022-12-22T21:20:31.059Z,60.97
2022-12-22T21:22:33.073Z,63.67
2022-12-22T21:24:35.704Z,66.00
2022-12-22T21:26:43.128Z,67.00
2022-12-22T21:28:47.037Z,65.70
2022-12-22T21:30:49.817Z,65.63
2022-12-22T21:32:53.028Z,64.40
2022-12-22T21:34:55.212Z,66.93
2022-12-22T21:37:01.757Z,70.40
2022-12-22T21:39:28.744Z,89.37
2022-12-22T21:41:49.358Z,85.73
2022-12-22T21:43:51.578Z,82.43
2022-12-22T21:45:53.970Z,80.90
2022-12-22T21:47:59.649Z,76.27
2022-12-22T21:50:01.985Z,74.87
2022-12-22T21:52:04.356Z,79.13
2022-12-22T21:54:06.872Z,79.10
2022-12-22T21:56:19.413Z,85.23
2022-12-22T21:58:22.184Z,95.27
2022-12-22T22:00:26.168Z,97.30
2022-12-22T22:02:37.624Z,96.67
2022-12-22T22:04:40.272Z,90.83
2022-12-22T22:06:42.954Z,97.03
2022-12-22T22:08:45.488Z,97.80
2022-12-22T22:10:48.123Z,89.50
2022-12-22T22:12:50.427Z,80.37
2022-12-22T22:14:52.573Z,78.23
2022-12-22T22:16:55.109Z,73.10
2022-12-22T22:18:57.650Z,78.23
2022-12-22T22:20:59.994Z,83.53
2022-12-22T22:23:02.248Z,84.43
2022-12-22T22:25:05.306Z,81.60
2022-12-22T22:27:07.604Z,79.83
2022-12-22T22:29:09.635Z,75.50
2022-12-22T22:31:12.037Z,87.07
2022-12-22T22:33:14.030Z,76.77
2022-12-22T22:35:16.602Z,74.93
2022-12-22T22:37:19.696Z,74.93
2022-12-22T22:39:23.370Z,74.73
2022-12-22T22:41:26.411Z,73.00
2022-12-22T22:43:28.799Z,69.50
2022-12-22T22:45:31.089Z,68.93
2022-12-22T22:47:33.205Z,78.27
2022-12-22T22:49:35.687Z,79.00
2022-12-22T22:51:37.905Z,79.53
2022-12-22T22:53:39.982Z,79.00
2022-12-22T22:55:42.637Z,78.93
2022-12-22T22:57:45.193Z,83.63
2022-12-22T22:59:47.324Z,90.50
2022-12-22T23:01:49.685Z,92.73
2022-12-22T23:03:52.369Z,93.60
2022-12-22T23:06:05.383Z,93.33
2022-12-22T23:08:07.810Z,88.60
2022-12-22T23:10:10.595Z,79.90
2022-12-22T23:12:13.321Z,80.53
2022-12-22T23:14:15.864Z,81.90
2022-12-22T23:16:21.806Z,88.47
2022-12-22T23:18:24.521Z,83.73
2022-12-22T23:20:29.303Z,91.57
2022-12-22T23:22:31.371Z,89.70
2022-12-22T23:24:33.640Z,84.83
2022-12-22T23:26:36.269Z,90.70
2022-12-22T23:28:39.052Z,101.53
2022-12-22T23:30:42.696Z,96.97
2022-12-22T23:32:45.015Z,83.30
2022-12-22T23:34:48.159Z,87.17
2022-12-22T23:36:50.239Z,83.20
2022-12-22T23:38:52.394Z,78.07
2022-12-22T23:41:05.844Z,82.43
2022-12-22T23:43:11.264Z,76.60
2022-12-22T23:45:13.326Z,74.70
2022-12-22T23:47:15.803Z,77.33
2022-12-22T23:49:18.101Z,76.03
2022-12-22T23:51:21.493Z,78.83
2022-12-22T23:53:23.583Z,77.50
2022-12-22T23:55:26.277Z,77.93
2022-12-22T23:57:28.269Z,71.93
2022-12-22T23:59:30.552Z,74.33
